Quick Links (Output Below):   Max & Min Temps   /   Climate Reports   /   Zone Forecasts
River Forecasts   /   Forestry Forecasts   /   Aviation Forecasts   /   Radars   /   Features

Terminal Aerodrome Forecast (Fort Smith)

Pick a Site:
Arkadelphia | El Dorado | Fayetteville | Fort Smith | Harrison | Highfill | Hot Springs | Jonesboro
Little Rock | Monticello | Mountain Home | Pine Bluff | Texarkana
 Forecast 

KFSM 301120Z 3012/0112 27003KT P6SM BKN025
      TEMPO 3012/3016 OVC015
     FM301600 27007KT P6SM BKN015
     FM301800 27007KT P6SM SCT025 BKN250
     FM010000 29003KT P6SM SKC=


 Latest METARs (Observations) 
How to Decode METARs
13Z KFSM 301253Z 00000KT 10SM OVC027 18/17 A2973 RMK AO2 SLP065
         T01830167
         
12Z KFSM 301153Z 10004KT 10SM BKN027 18/16 A2970 RMK AO2 SLP054 60000
         70247 T01780156 10189 20172 53011
         
11Z KFSM 301053Z 00000KT 10SM OVC023 18/16 A2969 RMK AO2 SLP052
         T01830161
         
10Z KFSM 300953Z 29003KT 10SM OVC049 18/16 A2968 RMK AO2 SLP045
         T01830161
         
09Z KFSM 300853Z 19003KT 10SM BKN011 18/16 A2967 RMK AO2 PRESRR SLP042
         60000 T01780161 53002
         
08Z KFSM 300753Z 10004KT 10SM SCT007 18/16 A2964 RMK AO2 SLP031
         T01830161
         
07Z KFSM 300653Z 07011KT 10SM BKN006 18/17 A2962 RMK AO2 RAE27 SLP027
         P0000 T01830167
         
06Z KFSM 300553Z 07005KT 9SM -RA FEW012 OVC110 19/17 A2966 RMK AO2 LTG
         DSNT NE TSB10E25 SLP041 P0019 60117 T01890172 10200 20189
         402170150 50017
         
05Z KFSM 300453Z 09006KT 2 1/2SM VCTS +RA BR FEW006 FEW018 OVC033
         19/17 A2967 RMK AO2 LTG DSNT N AND NE AND SW TSB34E49 SLP042
         P0059 T01890172
         
04Z KFSM 300353Z 06009KT 9SM VCTS -RA SCT013 BKN020 OVC100 19/17 A2966
         RMK AO2 LTG DSNT W-N RAE14B25 SLP041 P0005 T01940172
         
***** Today's Observations (Above) *****


Back to Main Page
http://www.srh.noaa.gov/lzk/qfcst.php

USA.gov is the U.S. government's official web portal to all federal, state and local government web resources and services.